August 16, 2022

Time Code Weather Temp. Visibility Ceiling Wind METAR/SPECI
9:00 am
V
59 °F 9 mi - 330° 330° 3 kt METAR CYWG 161400Z 33003KT 9SM BCFG FEW001 SCT006 15/15 A3002 RMK SF1SC2 / VIS W-SE 3 FG BANK / SLP169 DENSITY ALT 900FT
8:54 am
V
59 °F 9 mi - 320° 320° 3 kt METAR CYWG 161354Z 32003KT 310V010 9SM BCFG FEW002 15/15 A3002 RMK SC2 /LO VIS 2 SM W-SE FOG BANK/ SLP169 DENSITY ALT 900FT
8:00 am
V
57 °F 15 mi - 270° 270° 4 kt METAR CYWG 161300Z 27004KT 15SM FEW024 FEW220 SCT250 14/14 A3001 RMK SC1CC1CI4 SC TR CC TR SLP168 DENSITY ALT 800FT
7:00 am
V
57 °F 15 mi 25,000 ft Var 000° 0 kt METAR CYWG 161200Z 00000KT 15SM R13/5000VP6000FT/D FEW022 BKN250 14/14 A3000 RMK SC2CI3 SLP162 DENSITY ALT 800FT
6:00 am
V
59 °F 15 mi - 350° 350° 2 kt METAR CYWG 161100Z 35002KT 15SM FEW020 SCT240 15/15 A2998 RMK SC1CI4 SC TR SLP155 DENSITY ALT 900FT
5:00 am
V
59 °F 15 mi - 350° 350° 6 kt METAR CYWG 161000Z 35006KT 15SM FEW012 SCT240 15/15 A2998 RMK SC1CC3 SC TR SLP156 DENSITY ALT 1000FT
4:00 am
V
63 °F 15 mi 21,000 ft 280° 280° 6 kt METAR CYWG 160900Z 28006KT 210V330 15SM FEW010 BKN210 17/16 A2998 RMK SC1CI5 SLP155 DENSITY ALT 1100FT
3:00 am
V
63 °F 15 mi 22,000 ft 060° 060° 5 kt METAR CYWG 160800Z 06005KT 15SM FEW025 BKN220 17/17 A2996 RMK SC1CI4 SLP148 DENSITY ALT 1300FT
2:00 am
V
63 °F 15 mi 22,000 ft 360° 360° 6 kt METAR CYWG 160700Z 36006KT 15SM FEW025 BKN220 17/17 A2997 RMK SC2CI4 SLP152 DENSITY ALT 1200FT
1:00 am
V
63 °F 15 mi 17,000 ft 340° 340° 6 kt METAR CYWG 160600Z 34006KT 15SM FEW009 FEW013 FEW020CB BKN170 17/17 A2996 RMK CF1SC1CB1AC6 CF TR CB TR CB S MOVE E FREQ DIST LTNG S SLP151 DENSITY ALT 1200FT
12:45 am
V
64 °F 15 mi 15,000 ft 340° 340° 6 kt METAR CYWG 160545Z 34006KT 15SM SCT011 SCT020CB BKN150 18/17 A2997 RMK SC3CB1AC3 CB S MOV E CONTUS DIST LTNG S SLP152 DENSITY ALT 1300FT
12:31 am
M
64 °F 15 mi 1,200 ft 320° 320° 5 kt METAR CYWG 160531Z 32005KT 15SM -SHRA BKN012 BKN020CB OVC100 18/17 A2998 RMK SF6CB1AC2 CB TR CB S MOV E CONTUS DIST LTG S SLP155 DENSITY ALT 1300FT
12:12 am
I
64 °F 10 mi 600 ft 300° 300° 5 kt METAR CYWG 160512Z 30005KT 10SM -SHRA BKN006 OVC100 18/18 A2998 RMK SF5AC3 SLP157 DENSITY ALT 1300FT
12:00 am
V
64 °F 10 mi 10,000 ft Var Var 3 kt METAR CYWG 160500Z VRB03KT 10SM SHRA FEW005 OVC100 18/17 A2997 RMK SF2AC6 SLP152 DENSITY ALT 1300FT

August 15, 2022

Time Code Weather Temp. Visibility Ceiling Wind METAR/SPECI
11:19 pm
V
64 °F 6 mi 11,000 ft 070° 070° 9 kt METAR CYWG 160419Z 07009KT 6SM SHRA SCT005 OVC110 18/18 A2997 RMK SF4AC4 SLP153 DENSITY ALT 1300FT
11:00 pm
L
64 °F 4 mi 400 ft 020° 020° 7 kt METAR CYWG 160400Z 02007KT 290V050 4SM SHRA BR BKN004 OVC013 18/18 A2998 RMK SF5ST3 SLP156 DENSITY ALT 1300FT
10:18 pm
M
64 °F 4 mi 1,000 ft 270° 270° 4 kt METAR CYWG 160318Z 27004KT 4SM SHRA BR OVC010 18/18 A2998 RMK SC8 CB EMBD SLP157 DENSITY ALT 1300FT
10:00 pm
M
64 °F 4 mi 2,000 ft Var 000° 0 kt METAR CYWG 160300Z 00000KT 4SM +TSRA BR FEW009 OVC020 18/18 A2998 RMK SF1ST7 CB EMBD OCNL LTGICCC NE-SW SLP155 DENSITY ALT 1300FT
9:00 pm
M
64 °F 4 mi 3,900 ft 180° 180° 5 kt METAR CYWG 160200Z 18005KT 130V220 4SM +TSRA BR BKN039 OVC058 18/17 A2997 RMK ST7SC1 CB EMBD FREQ LTGCCCG ALQDS SLP153 DENSITY ALT 1300FT
8:32 pm
M
64 °F 4 mi 3,900 ft 200° 200° 6 kt METAR CYWG 160132Z 20006KT 4SM +TSRA BR OVC039 18/17 A2998 RMK ST8 CB EMBD FREQ LTGCCCG ALQDS SLP156 DENSITY ALT 1300FT
8:18 pm
I
64 °F 2½ mi 3,500 ft 250° 250° 9 - 18 kt METAR CYWG 160118Z 25009G18KT 200V270 2 1/2SM -TSRA BR FEW007 OVC035CB OVC075 18/17 A2998 RMK CF1CB8AC1 CF TR AC TR OCNL LTGCGIC ALQDS / CB ALQDS MOV E PRESRR SLP158 DENSITY ALT 1300FT
8:08 pm
I
64 °F 1 mi 1,200 ft 260° 260° 13 - 19 kt METAR CYWG 160108Z 26013G19KT 1SM R31/P6000FT/D R36/P6000FT/D +TSRA BR FEW008 VV012 18/17 A2999 RMK CF1RA8 CF TR / FRQ LTGIC ALQDS/ CB ALQDS MOV E PRESRR SLP159 DENSITY ALT 1300FT
8:00 pm
I
63 °F 2 mi 2,000 ft 260° 260° 14 kt METAR CYWG 160100Z CCA 26014KT 2SM R31/5500V6000FT/U SHRA BR BKN020CB OVC075 17/17 A2996 RMK RA4CB3AC1 FRQ LTGCGIC E / CB ALQDS MOV E PRESFR SLP150 DENSITY ALT 1200FT
7:53 pm
I
63 °F 1 mi 1,600 ft 270° 270° 11 - 17 kt METAR CYWG 160053Z 27011G17KT 1SM R36/P6000FT/N R31/5000VP6000FT/U +TSRA FEW004 VV016 17/17 A2997 RMK CF1RA8 CF TR FRQ LTGIC ALQDS / CB ALQDS MOV E PRESFR SLP153 DENSITY ALT 1200FT
7:39 pm
L
63 °F ¾ mi 700 ft 300° 300° 15 - 24 kt METAR CYWG 160039Z 30015G24KT 240V300 3/4SM R31/4000VP6000FT/D R36/5000VP6000FT/D +TSRA VV007 17/17 A3000 RMK RA8 /FRQ LTGIC ALQDS/ CB ALQDS OVRHD MOV E PRESRR SLP162 DENSITY ALT 1200FT
7:34 pm
L
64 °F ¾ mi 1,400 ft 280° 280° 19 - 28 kt METAR CYWG 160034Z 28019G28KT 3/4SM R31/5000VP6000FT/D R36/5500VP6000FT/D +TSRA VV014 18/17 A2998 RMK RA8 OCNL LGTIC N AND E / CB ALQDS OVRHD PRESRR SLP158 DENSITY ALT 1300FT
7:31 pm
I
66 °F 1 mi 1,500 ft Var Var 17 - 28 kt METAR CYWG 160031Z VRB17G28KT 1SM R31/P6000FT/U R36/P6000FT/U +TSRA VV015 19/16 A3000 RMK RA8 CB EMBD ALQDS MOV E PRESRR SLP164 DENSITY ALT 1300FT
7:00 pm
V
73 °F 13 mi 5,500 ft 070° 070° 5 kt METAR CYWG 160000Z 07005KT 13SM -SHRA SCT027CB BKN055 BKN090 BKN200 23/19 A2995 RMK CB4SC1ACC1CI2 ACC TR / CB CLDS SW-SE MOV VRY SLOLY E SLP145 DENSITY ALT 1900FT
6:51 pm
V
73 °F 13 mi 9,500 ft 060° 060° 6 kt METAR CYWG 152351Z 06006KT 13SM -SHRA SCT030CB BKN095 BKN130 BKN220 23/19 A2995 RMK CB4AC1AC1CI1 / CB CLDS SW-SE MOV VRY SLOLY E SLP145 DENSITY ALT 1900FT
6:00 pm
V
75 °F 13 mi - 050° 050° 7 kt METAR CYWG 152300Z 05007KT 13SM SCT028CB SCT095 SCT170 SCT220 24/19 A2996 RMK CB3AC1AC1CI1 AC TR AC TR CB CLDS SW-E SLOLY MRGG / ANVILS SLP147 DENSITY ALT 2000FT
5:52 pm
V
77 °F 15 mi - 050° 050° 7 kt METAR CYWG 152252Z 05007KT 15SM FEW028CB SCT095 SCT170 SCT220 25/19 A2996 RMK CB2AC1AC1CI1 AC TR CI TR CB CLDS NE-E MOV SLOLY W / NXT CB SW-NW MOV E / CB CLDS SLOLY CONVRGG SLP148 DENSITY ALT 2100FT
5:00 pm
V
75 °F 15 mi - 030° 030° 9 kt METAR CYWG 152200Z 03009KT 15SM FEW030CB FEW120 SCT170 SCT220 24/20 A2998 RMK CB1AC2AC2CI1 CI TR /CB TR NE-E STPD SLP153 DENSITY ALT 2000FT
4:00 pm
V
77 °F 15 mi 18,000 ft 020° 020° 8 kt METAR CYWG 152100Z 02008KT 15SM FEW030 SCT130 BKN180 BKN220 25/18 A2998 RMK SC2AC2AC1CI1 CI TR /CB TOP E SLP155 DENSITY ALT 2100FT
3:00 pm
V
73 °F 15 mi 17,000 ft 150° 150° 6 kt METAR CYWG 152000Z 15006KT 15SM FEW020TCU FEW130 SCT150 BKN170 BKN180 23/19 A2999 RMK TCU1AC1AC3AC2AC1 TCU TR SLP157 DENSITY ALT 1900FT
2:00 pm
V
72 °F 15 mi 13,000 ft 110° 110° 7 kt METAR CYWG 151900Z 11007KT 15SM FEW015TCU FEW035 SCT095 BKN130 BKN160 22/19 A2998 RMK TCU1SC1ACC1AC2AC2 PRESRR SLP154 DENSITY ALT 1700FT
1:00 pm
V
68 °F 13 mi 10,000 ft 020° 020° 3 - 16 kt METAR CYWG 151800Z 02003G16KT 330V050 13SM FEW010 FEW025CB SCT030TCU BKN100 BKN140 20/18 A2998 RMK CU1CB2TCU1AC2AC2 CU TR / CB W-NE MOV ENE SLP157 DENSITY ALT 1500FT
12:50 pm
V
66 °F 13 mi 12,000 ft 030° 030° 13 kt METAR CYWG 151750Z 03013KT 13SM FEW010 FEW025CB SCT050 BKN120 BKN150 19/18 A2997 RMK CF1CB2SC1AC2AC2 CF TR /OCNL-SHRA / CB W-NE MOV ENE PRESFR SLP152 DENSITY ALT 1400FT
12:38 pm
V
66 °F 13 mi 3,000 ft 020° 020° 9 - 17 kt METAR CYWG 151738Z 02009G17KT 13SM -SHRA FEW010 SCT025CB BKN030 BKN140 OVC150 19/18 A3000 RMK CF1CB3SC1AC2AC1 CB W-NE MOV NNE PRESFR SLP161 DENSITY ALT 1400FT
12:15 pm
M
66 °F 9 mi 2,500 ft 310° 310° 9 - 17 kt METAR CYWG 151715Z 31009G17KT 9SM -TSRA FEW009 BKN025CB BKN030 OVC060 19/18 A3004 RMK CF1CB4SC2SC1 / VIS W-N 4 / CB NOW W-N MOV N SLP175 DENSITY ALT 1400FT
12:07 pm
I
68 °F 13 mi 900 ft 300° 300° 12 - 19 kt METAR CYWG 151707Z 30012G19KT 260V330 13SM -TSRA BKN009CB OVC020 OVC060 20/18 A3004 RMK CB5SC3SC1 SC TR / CB SW-N NOW MOV NE SLP174 DENSITY ALT 1400FT
12:00 pm
M
68 °F 13 mi 1,000 ft 270° 270° 13 - 19 kt METAR CYWG 151700Z 27013G19KT 13SM VCSH BKN010 OVC065 20/18 A3004 RMK SC7SC1 /CB EMBD S-N MOV E SLP175 DENSITY ALT 1500FT
11:48 am
V
70 °F 13 mi 3,000 ft 250° 250° 11 kt METAR CYWG 151648Z 25011KT 13SM VCSH FEW012 SCT020 BKN030CB OVC065 OVC200 21/19 A3003 RMK CF1SC2CB4SC2CI1 CF TR CI TR /VCSH AND CB SW-NW MOV E SLP173 DENSITY ALT 1600FT
11:00 am
V
72 °F 15 mi 3,500 ft Var Var 2 kt METAR CYWG 151600Z VRB02KT 15SM FEW020TCU BKN035 OVC200 22/18 A3000 RMK TCU1SC5CI2 DIST CB EMBD SW-NW SLP161 DENSITY ALT 1800FT
10:00 am
V
72 °F 14 mi 22,000 ft 140° 140° 3 kt METAR CYWG 151500Z 14003KT 14SM SCT037 BKN220 BKN240 OVC260 22/18 A2998 RMK SC3CS2CS1CS2 CU ASOCTD SLP155 DENSITY ALT 1700FT
9:00 am
V
70 °F 15 mi 26,000 ft 150° 150° 4 kt METAR CYWG 151400Z 15004KT 15SM FEW130 FEW240 BKN260 21/18 A2997 RMK ACC1CI2CS5 ACC TR SLP150 DENSITY ALT 1700FT
8:00 am
V
68 °F 15 mi 25,000 ft 150° 150° 4 kt METAR CYWG 151300Z 15004KT 15SM FEW064 BKN250 20/18 A2996 RMK SC1CI7 SC TR SLP149 DENSITY ALT 1500FT
7:00 am
V
64 °F 15 mi 25,000 ft 100° 100° 5 kt METAR CYWG 151200Z 10005KT 15SM FEW064 FEW150 BKN250 18/17 A2996 RMK SC1AC1CI7 SC TR AC TR SLP147 DENSITY ALT 1300FT
6:00 am
V
64 °F 15 mi - 140° 140° 5 kt METAR CYWG 151100Z 14005KT 15SM FEW065 SCT250 18/17 A2997 RMK SC1CI2 SLP150 DENSITY ALT 1300FT
5:00 am
V
64 °F 15 mi - 110° 110° 5 kt METAR CYWG 151000Z 11005KT 15SM FEW064 18/17 A2997 RMK SC2 SLP150 DENSITY ALT 1300FT
4:00 am
V
68 °F 15 mi - 130° 130° 6 kt METAR CYWG 150900Z 13006KT 15SM SCT050 SCT066 20/18 A2996 RMK SC3AC1 AC TR SLP148 DENSITY ALT 1500FT
3:00 am
V
68 °F 15 mi - 150° 150° 5 kt METAR CYWG 150800Z 15005KT 15SM FEW051 20/18 A2996 RMK SC3 SLP147 DENSITY ALT 1600FT
2:00 am
V
68 °F 15 mi - 150° 150° 4 kt METAR CYWG 150700Z 15004KT 15SM FEW051 SCT150 20/17 A2996 RMK SC2AC1 SLP148 DENSITY ALT 1500FT
1:00 am
V
72 °F 15 mi - 190° 190° 8 kt METAR CYWG 150600Z 19008KT 15SM FEW150 22/18 A2995 RMK AC1 SLP142 DENSITY ALT 1700FT
12:00 am
V
70 °F 15 mi - 150° 150° 8 kt METAR CYWG 150500Z 15008KT 15SM FEW045 FEW130 21/18 A2996 RMK SC1AC1 SC TR AC TR SLP148 DENSITY ALT 1600FT

August 14, 2022

Time Code Weather Temp. Visibility Ceiling Wind METAR/SPECI
11:00 pm
V
70 °F 15 mi - 150° 150° 7 kt METAR CYWG 150400Z 15007KT 15SM FEW045 FEW250 21/18 A2996 RMK SC1CI1 SC TR CI TR SLP147 DENSITY ALT 1700FT
10:00 pm
V
72 °F 15 mi - 140° 140° 6 kt METAR CYWG 150300Z 14006KT 15SM FEW045 FEW250 22/19 A2996 RMK SC1CI1 CI TR SLP150 DENSITY ALT 1800FT
9:00 pm
V
73 °F 15 mi - 140° 140° 7 kt METAR CYWG 150200Z 14007KT 15SM FEW045 FEW250 23/19 A2994 RMK SC1CI1 CI TR SLP143 DENSITY ALT 2000FT
8:00 pm
V
77 °F 15 mi - 170° 170° 7 kt METAR CYWG 150100Z 17007KT 15SM FEW030TCU FEW045 25/19 A2994 RMK TCU1SC1 SC TR / TCU TR W-N SLP140 DENSITY ALT 2200FT
7:00 pm
V
79 °F 15 mi - 160° 160° 9 kt METAR CYWG 150000Z 16009KT 15SM FEW035TCU 26/19 A2994 RMK TCU1 TCU TR W-N SLP141 DENSITY ALT 2300FT
6:00 pm
V
81 °F 15 mi - 160° 160° 9 kt METAR CYWG 142300Z 16009KT 15SM FEW045 27/20 A2995 RMK CU1 SLP143 DENSITY ALT 2400FT
5:00 pm
V
81 °F 15 mi - 160° 160° 9 kt METAR CYWG 142200Z 16009KT 130V230 15SM FEW040 FEW130 27/19 A2995 RMK CU2AC1 AC TR SLP144 DENSITY ALT 2300FT
4:00 pm
V
81 °F 15 mi - 200° 200° 6 - 16 kt METAR CYWG 142100Z 20006G16KT 150V230 15SM FEW035 FEW140 27/19 A2995 RMK CU1AC1 AC TR SLP145 DENSITY ALT 2400FT
3:00 pm
V
81 °F 15 mi - 180° 180° 11 - 16 kt METAR CYWG 142000Z 18011G16KT 150V230 15SM FEW030 FEW140 FEW240 27/19 A2995 RMK CU1AC1CI1 CU TR CI TR SLP146 DENSITY ALT 2300FT
2:00 pm
V
77 °F 15 mi 26,000 ft 180° 180° 10 kt METAR CYWG 141900Z 18010KT 15SM FEW025 FEW095 BKN260 25/19 A2995 RMK CU1AC1CI5 CU TR AC TR SLP144 DENSITY ALT 2100FT
1:00 pm
V
77 °F 15 mi 26,000 ft 200° 200° 11 - 18 kt METAR CYWG 141800Z 20011G18KT 15SM FEW022 FEW220 BKN260 25/19 A2995 RMK CU1CC1CI3 DIST CB TOP NE / TCU TOP NW-N SLP146 DENSITY ALT 2100FT
12:00 pm
V
73 °F 15 mi 21,000 ft 190° 190° 13 kt METAR CYWG 141700Z 19013KT 15SM FEW027 SCT100 BKN210 23/19 A2997 RMK CU1AC4CI1 CU TR SLP151 DENSITY ALT 1900FT
11:00 am
V
70 °F 15 mi 11,000 ft 180° 180° 13 kt METAR CYWG 141600Z 18013KT 15SM FEW100 BKN110 BKN140 BKN220 21/17 A2996 RMK AC1AC4AC1CI1 AC TR CI TR SLP147 DENSITY ALT 1600FT
10:00 am
V
64 °F 15 mi 11,000 ft 180° 180° 5 kt METAR CYWG 141500Z 18005KT 170V230 15SM SCT095 BKN110 BKN140 18/16 A2998 RMK ACC3AC3AC1 OCNL-SHRA SLP155 DENSITY ALT 1300FT
9:22 am
V
64 °F 14 mi 9,000 ft 170° 170° 6 kt METAR CYWG 141422Z 17006KT 14SM -SHRA BKN090 BKN140 18/16 A2998 RMK AC6AC1 CVCTV CLD EMBD SLP155 DENSITY ALT 1300FT
9:00 am
V
63 °F 15 mi 12,000 ft 180° 180° 3 kt METAR CYWG 141400Z 18003KT 15SM FEW095 BKN120 BKN160 17/15 A2998 RMK ACC1AC5AC1 / VIRGA ALQDS / SLP156 DENSITY ALT 1200FT
Older data

We and third parties follow your internet behavior on our website with cookies. If you continue, we assume you agree with our cookie policy. Learn more